sensor_id;sensor_type;location;lat;lon;timestamp;temperature;humidity
26304;DHT22;70693;48.680;8.890;2023-11-21T00:00:10;17.80;99.60
26304;DHT22;70693;48.680;8.890;2023-11-21T00:02:38;17.80;99.60
26304;DHT22;70693;48.680;8.890;2023-11-21T00:05:07;17.80;99.60
26304;DHT22;70693;48.680;8.890;2023-11-21T00:07:35;17.80;99.60
26304;DHT22;70693;48.680;8.890;2023-11-21T00:10:01;17.80;99.90
26304;DHT22;70693;48.680;8.890;2023-11-21T00:12:28;17.80;99.60
26304;DHT22;70693;48.680;8.890;2023-11-21T00:14:54;17.70;99.60
26304;DHT22;70693;48.680;8.890;2023-11-21T00:17:20;17.80;99.70
26304;DHT22;70693;48.680;8.890;2023-11-21T00:19:46;17.70;99.60
26304;DHT22;70693;48.680;8.890;2023-11-21T00:22:11;17.70;99.60
26304;DHT22;70693;48.680;8.890;2023-11-21T00:24:37;17.70;99.60
26304;DHT22;70693;48.680;8.890;2023-11-21T00:27:03;17.70;99.60
26304;DHT22;70693;48.680;8.890;2023-11-21T00:29:28;17.70;99.60
26304;DHT22;70693;48.680;8.890;2023-11-21T00:31:55;17.70;99.60
26304;DHT22;70693;48.680;8.890;2023-11-21T00:34:20;17.70;99.70
26304;DHT22;70693;48.680;8.890;2023-11-21T00:36:46;17.70;99.70
26304;DHT22;70693;48.680;8.890;2023-11-21T00:39:11;17.70;99.70
26304;DHT22;70693;48.680;8.890;2023-11-21T00:41:37;17.70;99.70
26304;DHT22;70693;48.680;8.890;2023-11-21T00:44:03;17.70;99.70
26304;DHT22;70693;48.680;8.890;2023-11-21T00:46:29;17.70;99.70
26304;DHT22;70693;48.680;8.890;2023-11-21T00:48:55;17.70;99.70
26304;DHT22;70693;48.680;8.890;2023-11-21T00:51:22;17.70;99.70
26304;DHT22;70693;48.680;8.890;2023-11-21T00:53:47;17.70;99.70
26304;DHT22;70693;48.680;8.890;2023-11-21T00:56:14;17.60;99.70
26304;DHT22;70693;48.680;8.890;2023-11-21T00:58:40;17.70;99.70
26304;DHT22;70693;48.680;8.890;2023-11-21T01:01:11;17.60;99.70
26304;DHT22;70693;48.680;8.890;2023-11-21T01:03:37;17.70;99.70
26304;DHT22;70693;48.680;8.890;2023-11-21T01:06:03;17.60;99.70
26304;DHT22;70693;48.680;8.890;2023-11-21T01:08:33;17.60;99.70
26304;DHT22;70693;48.680;8.890;2023-11-21T01:10:58;17.60;99.70
26304;DHT22;70693;48.680;8.890;2023-11-21T01:13:24;17.60;99.70
26304;DHT22;70693;48.680;8.890;2023-11-21T01:15:54;17.70;99.70
26304;DHT22;70693;48.680;8.890;2023-11-21T01:18:19;17.60;99.70
26304;DHT22;70693;48.680;8.890;2023-11-21T01:20:45;17.60;99.70
26304;DHT22;70693;48.680;8.890;2023-11-21T01:23:13;17.60;99.70
26304;DHT22;70693;48.680;8.890;2023-11-21T01:25:38;17.60;99.80
26304;DHT22;70693;48.680;8.890;2023-11-21T01:28:04;17.60;99.70
26304;DHT22;70693;48.680;8.890;2023-11-21T01:30:29;17.60;99.80
26304;DHT22;70693;48.680;8.890;2023-11-21T01:32:55;17.60;99.80
26304;DHT22;70693;48.680;8.890;2023-11-21T01:35:22;17.60;99.80
26304;DHT22;70693;48.680;8.890;2023-11-21T01:37:47;17.60;99.80
26304;DHT22;70693;48.680;8.890;2023-11-21T01:40:13;17.60;99.80
26304;DHT22;70693;48.680;8.890;2023-11-21T01:42:40;17.60;99.80
26304;DHT22;70693;48.680;8.890;2023-11-21T01:45:06;17.60;99.80
26304;DHT22;70693;48.680;8.890;2023-11-21T01:47:33;17.60;99.80
26304;DHT22;70693;48.680;8.890;2023-11-21T01:50:02;17.60;99.80
26304;DHT22;70693;48.680;8.890;2023-11-21T01:52:30;17.60;99.80
26304;DHT22;70693;48.680;8.890;2023-11-21T01:54:57;17.60;99.80
26304;DHT22;70693;48.680;8.890;2023-11-21T01:57:24;17.60;99.80
26304;DHT22;70693;48.680;8.890;2023-11-21T01:59:53;17.60;99.80
26304;DHT22;70693;48.680;8.890;2023-11-21T02:02:20;17.60;99.80
26304;DHT22;70693;48.680;8.890;2023-11-21T02:04:46;17.60;99.80
26304;DHT22;70693;48.680;8.890;2023-11-21T02:07:11;17.60;99.80
26304;DHT22;70693;48.680;8.890;2023-11-21T02:09:37;17.60;99.80
26304;DHT22;70693;48.680;8.890;2023-11-21T02:12:08;17.50;99.80
26304;DHT22;70693;48.680;8.890;2023-11-21T02:14:36;17.50;99.80
26304;DHT22;70693;48.680;8.890;2023-11-21T02:17:02;17.60;99.80
26304;DHT22;70693;48.680;8.890;2023-11-21T02:19:29;17.50;99.80
26304;DHT22;70693;48.680;8.890;2023-11-21T02:21:57;17.50;99.80
26304;DHT22;70693;48.680;8.890;2023-11-21T02:24:32;17.60;99.80
26304;DHT22;70693;48.680;8.890;2023-11-21T02:26:58;17.50;99.80
26304;DHT22;70693;48.680;8.890;2023-11-21T02:29:24;17.50;99.80
26304;DHT22;70693;48.680;8.890;2023-11-21T02:31:54;17.50;99.80
26304;DHT22;70693;48.680;8.890;2023-11-21T02:34:20;17.50;99.80
26304;DHT22;70693;48.680;8.890;2023-11-21T02:36:47;17.50;99.80
26304;DHT22;70693;48.680;8.890;2023-11-21T02:39:15;17.50;99.80
26304;DHT22;70693;48.680;8.890;2023-11-21T02:41:40;17.50;99.80
26304;DHT22;70693;48.680;8.890;2023-11-21T02:44:06;17.50;99.80
26304;DHT22;70693;48.680;8.890;2023-11-21T02:46:36;17.50;99.80
26304;DHT22;70693;48.680;8.890;2023-11-21T02:49:03;17.50;99.80
26304;DHT22;70693;48.680;8.890;2023-11-21T02:51:29;17.50;99.80
26304;DHT22;70693;48.680;8.890;2023-11-21T02:53:55;17.50;99.80
26304;DHT22;70693;48.680;8.890;2023-11-21T02:56:26;17.50;99.80
26304;DHT22;70693;48.680;8.890;2023-11-21T02:58:56;17.50;99.80
26304;DHT22;70693;48.680;8.890;2023-11-21T03:01:22;17.50;99.80
26304;DHT22;70693;48.680;8.890;2023-11-21T03:03:49;17.50;99.80
26304;DHT22;70693;48.680;8.890;2023-11-21T03:06:17;17.50;99.90
26304;DHT22;70693;48.680;8.890;2023-11-21T03:08:43;17.50;99.90
26304;DHT22;70693;48.680;8.890;2023-11-21T03:11:08;17.50;99.90
26304;DHT22;70693;48.680;8.890;2023-11-21T03:13:34;17.50;99.80
26304;DHT22;70693;48.680;8.890;2023-11-21T03:15:59;17.50;99.80
26304;DHT22;70693;48.680;8.890;2023-11-21T03:18:25;17.50;99.80
26304;DHT22;70693;48.680;8.890;2023-11-21T03:20:52;17.50;99.90
26304;DHT22;70693;48.680;8.890;2023-11-21T03:23:18;17.50;99.80
26304;DHT22;70693;48.680;8.890;2023-11-21T03:25:44;17.50;99.80
26304;DHT22;70693;48.680;8.890;2023-11-21T03:28:10;17.50;99.80
26304;DHT22;70693;48.680;8.890;2023-11-21T03:30:35;17.50;99.90
26304;DHT22;70693;48.680;8.890;2023-11-21T03:33:01;17.50;99.80
26304;DHT22;70693;48.680;8.890;2023-11-21T03:35:27;17.40;99.80
26304;DHT22;70693;48.680;8.890;2023-11-21T03:37:53;17.50;99.90
26304;DHT22;70693;48.680;8.890;2023-11-21T03:40:19;17.40;99.80
26304;DHT22;70693;48.680;8.890;2023-11-21T03:42:46;17.40;99.80
26304;DHT22;70693;48.680;8.890;2023-11-21T03:45:12;17.40;99.80
26304;DHT22;70693;48.680;8.890;2023-11-21T03:47:43;17.40;99.80
26304;DHT22;70693;48.680;8.890;2023-11-21T03:50:09;17.40;99.80
26304;DHT22;70693;48.680;8.890;2023-11-21T03:52:35;17.40;99.80
26304;DHT22;70693;48.680;8.890;2023-11-21T03:55:01;17.40;99.80
26304;DHT22;70693;48.680;8.890;2023-11-21T03:57:27;17.40;99.80
26304;DHT22;70693;48.680;8.890;2023-11-21T03:59:55;17.40;99.80
26304;DHT22;70693;48.680;8.890;2023-11-21T04:02:21;17.40;99.80
26304;DHT22;70693;48.680;8.890;2023-11-21T04:04:46;17.40;99.80
26304;DHT22;70693;48.680;8.890;2023-11-21T04:07:12;17.40;99.80
26304;DHT22;70693;48.680;8.890;2023-11-21T04:09:39;17.40;99.80
26304;DHT22;70693;48.680;8.890;2023-11-21T04:12:05;17.40;99.80
26304;DHT22;70693;48.680;8.890;2023-11-21T04:14:32;17.40;99.80
26304;DHT22;70693;48.680;8.890;2023-11-21T04:16:58;17.40;99.80
26304;DHT22;70693;48.680;8.890;2023-11-21T04:19:23;17.40;99.80
26304;DHT22;70693;48.680;8.890;2023-11-21T04:21:49;17.40;99.80
26304;DHT22;70693;48.680;8.890;2023-11-21T04:24:15;17.40;99.90
26304;DHT22;70693;48.680;8.890;2023-11-21T04:26:41;17.40;99.80
26304;DHT22;70693;48.680;8.890;2023-11-21T04:29:07;17.40;99.90
26304;DHT22;70693;48.680;8.890;2023-11-21T04:31:32;17.40;99.90
26304;DHT22;70693;48.680;8.890;2023-11-21T04:33:58;17.40;99.90
26304;DHT22;70693;48.680;8.890;2023-11-21T04:36:24;17.40;99.90
26304;DHT22;70693;48.680;8.890;2023-11-21T04:38:49;17.40;99.80
26304;DHT22;70693;48.680;8.890;2023-11-21T04:41:15;17.40;99.90
26304;DHT22;70693;48.680;8.890;2023-11-21T04:43:40;17.40;99.90
26304;DHT22;70693;48.680;8.890;2023-11-21T04:46:09;17.40;99.80
26304;DHT22;70693;48.680;8.890;2023-11-21T04:48:34;17.40;99.80
26304;DHT22;70693;48.680;8.890;2023-11-21T04:51:00;17.40;99.90
26304;DHT22;70693;48.680;8.890;2023-11-21T04:53:26;17.40;99.90
26304;DHT22;70693;48.680;8.890;2023-11-21T04:55:51;17.40;99.90
26304;DHT22;70693;48.680;8.890;2023-11-21T04:58:17;17.40;99.90
26304;DHT22;70693;48.680;8.890;2023-11-21T05:00:43;17.40;99.90
26304;DHT22;70693;48.680;8.890;2023-11-21T05:03:09;17.40;99.90
26304;DHT22;70693;48.680;8.890;2023-11-21T05:05:35;17.40;99.90
26304;DHT22;70693;48.680;8.890;2023-11-21T05:08:00;17.40;99.90
26304;DHT22;70693;48.680;8.890;2023-11-21T05:10:27;17.40;99.90
26304;DHT22;70693;48.680;8.890;2023-11-21T05:12:52;17.40;99.90
26304;DHT22;70693;48.680;8.890;2023-11-21T05:15:18;17.40;99.80
26304;DHT22;70693;48.680;8.890;2023-11-21T05:17:44;17.40;99.90
26304;DHT22;70693;48.680;8.890;2023-11-21T05:20:11;17.40;99.90
26304;DHT22;70693;48.680;8.890;2023-11-21T05:22:38;17.40;99.90
26304;DHT22;70693;48.680;8.890;2023-11-21T05:25:05;17.40;99.80
26304;DHT22;70693;48.680;8.890;2023-11-21T05:27:32;17.40;99.90
26304;DHT22;70693;48.680;8.890;2023-11-21T05:29:58;17.40;99.90
26304;DHT22;70693;48.680;8.890;2023-11-21T05:32:25;17.40;99.90
26304;DHT22;70693;48.680;8.890;2023-11-21T05:34:51;17.40;99.90
26304;DHT22;70693;48.680;8.890;2023-11-21T05:37:17;17.40;99.90
26304;DHT22;70693;48.680;8.890;2023-11-21T05:39:43;17.30;99.80
26304;DHT22;70693;48.680;8.890;2023-11-21T05:42:09;17.40;99.90
26304;DHT22;70693;48.680;8.890;2023-11-21T05:44:36;17.40;99.90
26304;DHT22;70693;48.680;8.890;2023-11-21T05:47:02;17.30;99.80
26304;DHT22;70693;48.680;8.890;2023-11-21T05:49:29;17.40;99.90
26304;DHT22;70693;48.680;8.890;2023-11-21T05:51:56;17.30;99.90
26304;DHT22;70693;48.680;8.890;2023-11-21T05:54:22;17.30;99.80
26304;DHT22;70693;48.680;8.890;2023-11-21T05:56:49;17.30;99.80
26304;DHT22;70693;48.680;8.890;2023-11-21T05:59:15;17.30;99.80
26304;DHT22;70693;48.680;8.890;2023-11-21T06:01:40;17.30;99.80
26304;DHT22;70693;48.680;8.890;2023-11-21T06:04:06;17.30;99.80
26304;DHT22;70693;48.680;8.890;2023-11-21T06:06:36;17.30;99.80
26304;DHT22;70693;48.680;8.890;2023-11-21T06:09:01;17.30;99.80
26304;DHT22;70693;48.680;8.890;2023-11-21T06:11:27;17.30;99.80
26304;DHT22;70693;48.680;8.890;2023-11-21T06:13:53;17.30;99.80
26304;DHT22;70693;48.680;8.890;2023-11-21T06:16:19;17.30;99.80
26304;DHT22;70693;48.680;8.890;2023-11-21T06:18:47;17.30;99.80
26304;DHT22;70693;48.680;8.890;2023-11-21T06:21:13;17.30;99.80
26304;DHT22;70693;48.680;8.890;2023-11-21T06:23:40;17.30;99.80
26304;DHT22;70693;48.680;8.890;2023-11-21T06:26:06;17.30;99.80
26304;DHT22;70693;48.680;8.890;2023-11-21T06:28:32;17.30;99.80
26304;DHT22;70693;48.680;8.890;2023-11-21T06:30:57;17.30;99.80
26304;DHT22;70693;48.680;8.890;2023-11-21T06:33:24;17.30;99.80
26304;DHT22;70693;48.680;8.890;2023-11-21T06:35:52;17.30;99.80
26304;DHT22;70693;48.680;8.890;2023-11-21T06:38:18;17.30;99.80
26304;DHT22;70693;48.680;8.890;2023-11-21T06:40:45;17.30;99.80
26304;DHT22;70693;48.680;8.890;2023-11-21T06:43:11;17.30;99.80
26304;DHT22;70693;48.680;8.890;2023-11-21T06:45:36;17.30;99.80
26304;DHT22;70693;48.680;8.890;2023-11-21T06:48:02;17.30;99.80
26304;DHT22;70693;48.680;8.890;2023-11-21T06:50:28;17.30;99.80
26304;DHT22;70693;48.680;8.890;2023-11-21T06:52:53;17.30;99.80
26304;DHT22;70693;48.680;8.890;2023-11-21T06:55:19;17.30;99.80
26304;DHT22;70693;48.680;8.890;2023-11-21T06:57:44;17.30;99.80
26304;DHT22;70693;48.680;8.890;2023-11-21T07:00:10;17.30;99.80
26304;DHT22;70693;48.680;8.890;2023-11-21T07:02:37;17.30;99.80
26304;DHT22;70693;48.680;8.890;2023-11-21T07:05:02;17.30;99.80
26304;DHT22;70693;48.680;8.890;2023-11-21T07:07:28;17.30;99.80
26304;DHT22;70693;48.680;8.890;2023-11-21T07:09:54;17.30;99.80
26304;DHT22;70693;48.680;8.890;2023-11-21T07:12:20;17.30;99.90
26304;DHT22;70693;48.680;8.890;2023-11-21T07:14:49;17.30;99.80
26304;DHT22;70693;48.680;8.890;2023-11-21T07:17:14;17.30;99.80
26304;DHT22;70693;48.680;8.890;2023-11-21T07:19:40;17.30;99.80
26304;DHT22;70693;48.680;8.890;2023-11-21T07:22:06;17.30;99.80
26304;DHT22;70693;48.680;8.890;2023-11-21T07:24:34;17.30;99.80
26304;DHT22;70693;48.680;8.890;2023-11-21T07:26:59;17.30;99.90
26304;DHT22;70693;48.680;8.890;2023-11-21T07:29:26;17.30;99.80
26304;DHT22;70693;48.680;8.890;2023-11-21T07:31:53;17.30;99.80
26304;DHT22;70693;48.680;8.890;2023-11-21T07:34:20;17.30;99.90
26304;DHT22;70693;48.680;8.890;2023-11-21T07:36:46;17.30;99.90
26304;DHT22;70693;48.680;8.890;2023-11-21T07:39:12;17.30;99.80
26304;DHT22;70693;48.680;8.890;2023-11-21T07:41:38;17.30;99.90
26304;DHT22;70693;48.680;8.890;2023-11-21T07:44:10;17.30;99.90
26304;DHT22;70693;48.680;8.890;2023-11-21T07:46:37;17.30;99.90
26304;DHT22;70693;48.680;8.890;2023-11-21T07:49:02;17.30;99.90
26304;DHT22;70693;48.680;8.890;2023-11-21T07:51:29;17.30;99.90
26304;DHT22;70693;48.680;8.890;2023-11-21T07:53:55;17.30;99.90
26304;DHT22;70693;48.680;8.890;2023-11-21T07:56:20;17.30;99.90
26304;DHT22;70693;48.680;8.890;2023-11-21T07:58:46;17.30;99.90
26304;DHT22;70693;48.680;8.890;2023-11-21T08:01:11;17.30;99.90
26304;DHT22;70693;48.680;8.890;2023-11-21T08:03:37;17.30;99.80
26304;DHT22;70693;48.680;8.890;2023-11-21T08:06:03;17.30;99.80
26304;DHT22;70693;48.680;8.890;2023-11-21T08:08:31;17.30;99.80
26304;DHT22;70693;48.680;8.890;2023-11-21T08:10:57;17.30;99.80
26304;DHT22;70693;48.680;8.890;2023-11-21T08:15:49;17.30;99.80
26304;DHT22;70693;48.680;8.890;2023-11-21T08:18:15;17.30;99.80
26304;DHT22;70693;48.680;8.890;2023-11-21T08:20:42;17.30;99.80
26304;DHT22;70693;48.680;8.890;2023-11-21T08:23:08;17.30;99.80
26304;DHT22;70693;48.680;8.890;2023-11-21T08:25:34;17.40;99.80
26304;DHT22;70693;48.680;8.890;2023-11-21T08:28:00;17.30;99.80
26304;DHT22;70693;48.680;8.890;2023-11-21T08:30:27;17.40;99.80
26304;DHT22;70693;48.680;8.890;2023-11-21T08:32:55;17.40;99.80
26304;DHT22;70693;48.680;8.890;2023-11-21T08:35:26;17.40;99.80
26304;DHT22;70693;48.680;8.890;2023-11-21T08:37:52;17.40;99.80
26304;DHT22;70693;48.680;8.890;2023-11-21T08:40:19;17.40;99.90
26304;DHT22;70693;48.680;8.890;2023-11-21T08:42:45;17.40;99.80
26304;DHT22;70693;48.680;8.890;2023-11-21T08:45:11;17.40;99.80
26304;DHT22;70693;48.680;8.890;2023-11-21T08:47:38;17.40;99.80
26304;DHT22;70693;48.680;8.890;2023-11-21T08:50:05;17.40;99.80
26304;DHT22;70693;48.680;8.890;2023-11-21T08:52:33;17.40;99.80
26304;DHT22;70693;48.680;8.890;2023-11-21T08:54:59;17.40;99.90
26304;DHT22;70693;48.680;8.890;2023-11-21T08:57:28;17.40;99.80
26304;DHT22;70693;48.680;8.890;2023-11-21T08:59:54;17.40;99.80
26304;DHT22;70693;48.680;8.890;2023-11-21T09:02:23;17.40;99.80
26304;DHT22;70693;48.680;8.890;2023-11-21T09:04:49;17.40;99.80
26304;DHT22;70693;48.680;8.890;2023-11-21T09:07:16;17.40;99.70
26304;DHT22;70693;48.680;8.890;2023-11-21T09:09:41;17.40;99.70
26304;DHT22;70693;48.680;8.890;2023-11-21T09:12:07;17.40;99.70
26304;DHT22;70693;48.680;8.890;2023-11-21T09:14:33;17.40;99.70
26304;DHT22;70693;48.680;8.890;2023-11-21T09:16:59;17.50;99.70
26304;DHT22;70693;48.680;8.890;2023-11-21T09:19:24;17.50;99.70
26304;DHT22;70693;48.680;8.890;2023-11-21T09:21:50;17.50;99.70
26304;DHT22;70693;48.680;8.890;2023-11-21T09:24:16;17.50;99.70
26304;DHT22;70693;48.680;8.890;2023-11-21T09:26:42;17.50;99.70
26304;DHT22;70693;48.680;8.890;2023-11-21T09:29:07;17.50;99.70
26304;DHT22;70693;48.680;8.890;2023-11-21T09:31:33;17.50;99.70
26304;DHT22;70693;48.680;8.890;2023-11-21T09:33:59;17.50;99.60
26304;DHT22;70693;48.680;8.890;2023-11-21T09:36:25;17.50;99.60
26304;DHT22;70693;48.680;8.890;2023-11-21T09:38:53;17.50;99.60
26304;DHT22;70693;48.680;8.890;2023-11-21T09:41:34;17.50;99.60
26304;DHT22;70693;48.680;8.890;2023-11-21T09:44:05;17.50;99.60
26304;DHT22;70693;48.680;8.890;2023-11-21T09:46:37;17.50;99.60
26304;DHT22;70693;48.680;8.890;2023-11-21T09:49:05;17.50;99.60
26304;DHT22;70693;48.680;8.890;2023-11-21T09:51:42;17.50;99.60
26304;DHT22;70693;48.680;8.890;2023-11-21T09:54:10;17.50;99.60
26304;DHT22;70693;48.680;8.890;2023-11-21T09:56:37;17.50;99.50
26304;DHT22;70693;48.680;8.890;2023-11-21T09:59:03;17.60;99.60
26304;DHT22;70693;48.680;8.890;2023-11-21T10:01:36;17.50;99.50
26304;DHT22;70693;48.680;8.890;2023-11-21T10:04:02;17.60;99.60
26304;DHT22;70693;48.680;8.890;2023-11-21T10:06:28;17.60;99.60
26304;DHT22;70693;48.680;8.890;2023-11-21T10:08:56;17.60;99.90
26304;DHT22;70693;48.680;8.890;2023-11-21T10:11:25;17.60;99.50
26304;DHT22;70693;48.680;8.890;2023-11-21T10:13:54;17.60;99.50
26304;DHT22;70693;48.680;8.890;2023-11-21T10:16:23;17.60;99.50
26304;DHT22;70693;48.680;8.890;2023-11-21T10:18:52;17.60;99.50
26304;DHT22;70693;48.680;8.890;2023-11-21T10:21:20;17.60;99.50
26304;DHT22;70693;48.680;8.890;2023-11-21T10:23:47;17.60;99.50
26304;DHT22;70693;48.680;8.890;2023-11-21T10:26:13;17.60;99.50
26304;DHT22;70693;48.680;8.890;2023-11-21T10:29:02;17.60;99.40
26304;DHT22;70693;48.680;8.890;2023-11-21T10:31:32;17.60;99.40
26304;DHT22;70693;48.680;8.890;2023-11-21T10:36:37;17.60;99.40
26304;DHT22;70693;48.680;8.890;2023-11-21T10:39:03;17.60;99.40
26304;DHT22;70693;48.680;8.890;2023-11-21T10:41:28;17.60;99.40
26304;DHT22;70693;48.680;8.890;2023-11-21T10:43:55;17.60;99.40
26304;DHT22;70693;48.680;8.890;2023-11-21T10:46:21;17.60;99.40
26304;DHT22;70693;48.680;8.890;2023-11-21T10:48:53;17.60;99.40
26304;DHT22;70693;48.680;8.890;2023-11-21T10:51:22;17.60;99.40
26304;DHT22;70693;48.680;8.890;2023-11-21T10:53:51;17.60;99.40
26304;DHT22;70693;48.680;8.890;2023-11-21T10:56:18;17.60;99.40
26304;DHT22;70693;48.680;8.890;2023-11-21T10:58:45;17.60;99.40
26304;DHT22;70693;48.680;8.890;2023-11-21T11:01:11;17.60;99.40
26304;DHT22;70693;48.680;8.890;2023-11-21T11:03:40;17.60;99.40
26304;DHT22;70693;48.680;8.890;2023-11-21T11:06:07;17.60;99.30
26304;DHT22;70693;48.680;8.890;2023-11-21T11:08:40;17.60;99.30
26304;DHT22;70693;48.680;8.890;2023-11-21T11:11:06;17.70;99.40
26304;DHT22;70693;48.680;8.890;2023-11-21T11:13:32;17.60;99.30
26304;DHT22;70693;48.680;8.890;2023-11-21T11:15:59;17.60;99.30
26304;DHT22;70693;48.680;8.890;2023-11-21T11:18:30;17.60;99.30
26304;DHT22;70693;48.680;8.890;2023-11-21T11:26:46;17.70;99.40
26304;DHT22;70693;48.680;8.890;2023-11-21T11:32:16;17.70;99.30
26304;DHT22;70693;48.680;8.890;2023-11-21T11:34:59;17.70;99.30
26304;DHT22;70693;48.680;8.890;2023-11-21T11:37:27;17.60;99.30
26304;DHT22;70693;48.680;8.890;2023-11-21T11:39:52;17.60;99.30
26304;DHT22;70693;48.680;8.890;2023-11-21T11:42:21;17.70;99.30
26304;DHT22;70693;48.680;8.890;2023-11-21T11:44:50;17.70;99.30
26304;DHT22;70693;48.680;8.890;2023-11-21T11:50:09;17.70;99.30
26304;DHT22;70693;48.680;8.890;2023-11-21T11:52:50;17.70;99.30
26304;DHT22;70693;48.680;8.890;2023-11-21T11:55:19;17.70;99.30
26304;DHT22;70693;48.680;8.890;2023-11-21T11:57:46;17.70;99.30
26304;DHT22;70693;48.680;8.890;2023-11-21T12:00:41;17.70;99.30
26304;DHT22;70693;48.680;8.890;2023-11-21T12:03:07;17.70;99.30
26304;DHT22;70693;48.680;8.890;2023-11-21T12:05:35;17.70;99.20
26304;DHT22;70693;48.680;8.890;2023-11-21T12:08:05;17.70;99.30
26304;DHT22;70693;48.680;8.890;2023-11-21T12:10:33;17.70;99.30
26304;DHT22;70693;48.680;8.890;2023-11-21T12:13:07;17.70;99.20
26304;DHT22;70693;48.680;8.890;2023-11-21T12:15:33;17.70;99.20
26304;DHT22;70693;48.680;8.890;2023-11-21T12:18:00;17.80;99.30
26304;DHT22;70693;48.680;8.890;2023-11-21T12:20:27;17.70;99.20
26304;DHT22;70693;48.680;8.890;2023-11-21T12:22:55;17.70;99.20
26304;DHT22;70693;48.680;8.890;2023-11-21T12:25:26;17.70;99.20
26304;DHT22;70693;48.680;8.890;2023-11-21T12:27:56;17.80;99.30
26304;DHT22;70693;48.680;8.890;2023-11-21T12:30:27;17.80;99.20
26304;DHT22;70693;48.680;8.890;2023-11-21T12:33:01;17.80;99.20
26304;DHT22;70693;48.680;8.890;2023-11-21T12:35:29;17.80;99.20
26304;DHT22;70693;48.680;8.890;2023-11-21T12:37:56;17.80;99.20
26304;DHT22;70693;48.680;8.890;2023-11-21T12:40:25;17.80;99.20
26304;DHT22;70693;48.680;8.890;2023-11-21T12:42:58;17.80;99.20
26304;DHT22;70693;48.680;8.890;2023-11-21T12:45:26;17.80;99.20
26304;DHT22;70693;48.680;8.890;2023-11-21T12:48:13;17.80;99.20
26304;DHT22;70693;48.680;8.890;2023-11-21T12:50:38;17.80;99.20
26304;DHT22;70693;48.680;8.890;2023-11-21T12:53:09;17.80;99.20
26304;DHT22;70693;48.680;8.890;2023-11-21T12:55:36;17.80;99.20
26304;DHT22;70693;48.680;8.890;2023-11-21T12:58:06;17.80;99.50
26304;DHT22;70693;48.680;8.890;2023-11-21T13:00:43;17.80;99.20
26304;DHT22;70693;48.680;8.890;2023-11-21T13:03:11;17.80;99.20
26304;DHT22;70693;48.680;8.890;2023-11-21T13:05:46;17.80;99.50
26304;DHT22;70693;48.680;8.890;2023-11-21T13:08:13;17.80;99.20
26304;DHT22;70693;48.680;8.890;2023-11-21T13:10:40;17.80;99.20
26304;DHT22;70693;48.680;8.890;2023-11-21T13:13:09;17.80;99.20
26304;DHT22;70693;48.680;8.890;2023-11-21T13:15:39;17.80;99.20
26304;DHT22;70693;48.680;8.890;2023-11-21T13:18:06;17.80;99.20
26304;DHT22;70693;48.680;8.890;2023-11-21T13:20:32;17.80;99.20
26304;DHT22;70693;48.680;8.890;2023-11-21T13:22:59;17.80;99.50
26304;DHT22;70693;48.680;8.890;2023-11-21T13:25:30;17.80;99.20
26304;DHT22;70693;48.680;8.890;2023-11-21T13:27:58;17.80;99.50
26304;DHT22;70693;48.680;8.890;2023-11-21T13:30:28;17.80;99.10
26304;DHT22;70693;48.680;8.890;2023-11-21T13:33:02;17.80;99.20
26304;DHT22;70693;48.680;8.890;2023-11-21T13:35:30;17.80;99.20
26304;DHT22;70693;48.680;8.890;2023-11-21T13:38:05;17.80;99.10
26304;DHT22;70693;48.680;8.890;2023-11-21T13:40:32;17.80;99.10
26304;DHT22;70693;48.680;8.890;2023-11-21T13:43:00;17.80;99.10
26304;DHT22;70693;48.680;8.890;2023-11-21T13:45:29;17.80;99.10
26304;DHT22;70693;48.680;8.890;2023-11-21T13:47:56;17.80;99.10
26304;DHT22;70693;48.680;8.890;2023-11-21T13:50:25;17.80;99.10
26304;DHT22;70693;48.680;8.890;2023-11-21T13:52:58;17.80;99.10
26304;DHT22;70693;48.680;8.890;2023-11-21T13:55:28;17.80;99.10
26304;DHT22;70693;48.680;8.890;2023-11-21T13:57:54;17.80;99.10
26304;DHT22;70693;48.680;8.890;2023-11-21T14:00:19;17.80;99.20
26304;DHT22;70693;48.680;8.890;2023-11-21T14:03:08;17.80;99.10
26304;DHT22;70693;48.680;8.890;2023-11-21T14:05:43;17.80;99.10
26304;DHT22;70693;48.680;8.890;2023-11-21T14:08:10;17.80;99.10
26304;DHT22;70693;48.680;8.890;2023-11-21T14:10:37;17.80;99.10
26304;DHT22;70693;48.680;8.890;2023-11-21T14:13:09;17.80;99.40
26304;DHT22;70693;48.680;8.890;2023-11-21T14:15:41;17.80;99.10
26304;DHT22;70693;48.680;8.890;2023-11-21T14:18:09;17.80;99.10
26304;DHT22;70693;48.680;8.890;2023-11-21T14:20:40;17.80;99.10
26304;DHT22;70693;48.680;8.890;2023-11-21T14:23:06;17.80;99.20
26304;DHT22;70693;48.680;8.890;2023-11-21T14:25:36;17.80;99.10
26304;DHT22;70693;48.680;8.890;2023-11-21T14:28:05;17.80;99.10
26304;DHT22;70693;48.680;8.890;2023-11-21T14:30:32;17.80;99.10
26304;DHT22;70693;48.680;8.890;2023-11-21T14:32:59;17.80;99.10
26304;DHT22;70693;48.680;8.890;2023-11-21T14:35:26;17.80;99.10
26304;DHT22;70693;48.680;8.890;2023-11-21T14:37:52;17.80;99.20
26304;DHT22;70693;48.680;8.890;2023-11-21T14:40:18;17.80;99.20
26304;DHT22;70693;48.680;8.890;2023-11-21T14:42:48;17.80;99.10
26304;DHT22;70693;48.680;8.890;2023-11-21T14:45:14;17.70;99.10
26304;DHT22;70693;48.680;8.890;2023-11-21T14:47:45;17.80;99.20
26304;DHT22;70693;48.680;8.890;2023-11-21T14:50:16;17.80;99.20
26304;DHT22;70693;48.680;8.890;2023-11-21T14:53:00;17.80;99.20
26304;DHT22;70693;48.680;8.890;2023-11-21T14:55:30;17.80;99.20
26304;DHT22;70693;48.680;8.890;2023-11-21T14:57:56;17.70;99.20
26304;DHT22;70693;48.680;8.890;2023-11-21T15:00:22;17.70;99.20
26304;DHT22;70693;48.680;8.890;2023-11-21T15:03:16;17.80;99.20
26304;DHT22;70693;48.680;8.890;2023-11-21T15:06:01;17.70;99.20
26304;DHT22;70693;48.680;8.890;2023-11-21T15:08:45;17.70;99.20
26304;DHT22;70693;48.680;8.890;2023-11-21T15:11:14;17.70;99.20
26304;DHT22;70693;48.680;8.890;2023-11-21T15:13:41;17.70;99.20
26304;DHT22;70693;48.680;8.890;2023-11-21T15:16:08;17.70;99.20
26304;DHT22;70693;48.680;8.890;2023-11-21T15:18:36;17.70;99.60
26304;DHT22;70693;48.680;8.890;2023-11-21T15:21:02;17.70;99.20
26304;DHT22;70693;48.680;8.890;2023-11-21T15:23:30;17.70;99.20
26304;DHT22;70693;48.680;8.890;2023-11-21T15:26:00;17.70;99.30
26304;DHT22;70693;48.680;8.890;2023-11-21T15:28:26;17.70;99.20
26304;DHT22;70693;48.680;8.890;2023-11-21T15:30:54;17.70;99.30
26304;DHT22;70693;48.680;8.890;2023-11-21T15:33:19;17.70;99.30
26304;DHT22;70693;48.680;8.890;2023-11-21T15:35:45;17.70;99.30
26304;DHT22;70693;48.680;8.890;2023-11-21T15:38:11;17.70;99.30
26304;DHT22;70693;48.680;8.890;2023-11-21T15:40:38;17.70;99.30
26304;DHT22;70693;48.680;8.890;2023-11-21T15:43:04;17.70;99.30
26304;DHT22;70693;48.680;8.890;2023-11-21T15:45:29;17.60;99.30
26304;DHT22;70693;48.680;8.890;2023-11-21T15:47:55;17.60;99.30